Time;durP1;ratioP1;P1;durP2;ratioP2;P2;SDS_P1;SDS_P2;PMS_P1;PMS_P2;Temp;Humidity;BMP_temperature;BMP_pressure;BME280_temperature;BME280_humidity;BME280_pressure;Samples;Min_cycle;Max_cycle;Signal;HPM_P1;HPM_P2
2022/07/17 00:00:25;;;;;;;6.03;1.52;;;;;;;13.79;61.80;101771.16;5041366;28;20520;-58
2022/07/17 00:02:52;;;;;;;7.45;1.58;;;;;;;13.75;61.98;101768.78;5051124;28;20047;-52
2022/07/17 00:05:19;;;;;;;5.53;1.45;;;;;;;13.74;61.78;101775.00;5047881;28;20135;-54
2022/07/17 00:07:49;;;;;;;6.70;2.10;;;;;;;13.70;61.86;101779.59;5029424;28;20056;-56
2022/07/17 00:10:17;;;;;;;6.55;1.70;;;;;;;13.67;62.39;101775.31;5029616;28;20042;-54
2022/07/17 00:12:44;;;;;;;9.63;2.28;;;;;;;13.64;62.39;101770.22;5029245;28;20498;-58
2022/07/17 00:15:12;;;;;;;10.43;2.00;;;;;;;13.58;62.83;101772.31;5044957;28;20061;-55
2022/07/17 00:17:39;;;;;;;9.80;1.77;;;;;;;13.55;62.86;101775.13;5050486;28;20048;-57
2022/07/17 00:20:07;;;;;;;4.97;1.55;;;;;;;13.54;62.39;101776.91;5054744;28;20045;-58
2022/07/17 00:22:35;;;;;;;10.38;2.22;;;;;;;13.52;63.36;101770.84;5052430;28;20063;-52
2022/07/17 00:25:02;;;;;;;7.30;1.40;;;;;;;13.49;63.01;101776.31;5046589;28;20046;-57
2022/07/17 00:27:29;;;;;;;7.40;1.50;;;;;;;13.45;62.95;101779.19;5053615;28;20071;-57
2022/07/17 00:29:56;;;;;;;11.00;2.15;;;;;;;13.43;63.23;101787.22;5054366;28;20202;-56
2022/07/17 00:32:24;;;;;;;4.88;1.58;;;;;;;13.40;63.21;101782.06;5046339;28;20056;-57
2022/07/17 00:34:51;;;;;;;7.45;1.90;;;;;;;13.38;63.71;101786.59;5057291;28;20053;-57
2022/07/17 00:37:18;;;;;;;5.40;2.08;;;;;;;13.35;63.54;101784.09;5053273;28;20052;-55
2022/07/17 00:39:46;;;;;;;7.65;1.48;;;;;;;13.30;64.05;101787.00;5051432;28;20057;-55
2022/07/17 00:42:15;;;;;;;12.35;2.08;;;;;;;13.29;64.16;101795.03;5045020;28;20053;-56
2022/07/17 00:44:43;;;;;;;5.55;1.15;;;;;;;13.27;64.10;101781.00;5051443;28;20118;-57
2022/07/17 00:47:15;;;;;;;6.97;1.55;;;;;;;13.23;64.44;101782.94;5048319;28;20516;-57
2022/07/17 00:49:42;;;;;;;5.90;1.65;;;;;;;13.21;64.60;101784.78;5047646;28;20758;-52
2022/07/17 00:52:09;;;;;;;6.82;2.17;;;;;;;13.18;64.61;101777.00;5054347;28;20053;-57
2022/07/17 00:54:41;;;;;;;6.05;1.88;;;;;;;13.14;64.80;101776.31;5051198;28;20061;-58
2022/07/17 00:57:12;;;;;;;7.15;1.40;;;;;;;13.13;65.23;101779.88;5055675;28;20530;-56
2022/07/17 00:59:41;;;;;;;8.52;1.40;;;;;;;13.10;65.19;101774.78;5051637;28;20049;-57
2022/07/17 01:02:10;;;;;;;9.68;1.80;;;;;;;13.07;65.30;101774.94;5043218;28;20060;-57
2022/07/17 01:04:38;;;;;;;5.80;1.70;;;;;;;13.03;65.33;101777.81;5045146;28;20079;-55
2022/07/17 01:07:06;;;;;;;8.85;2.15;;;;;;;13.01;65.61;101771.72;5054279;28;20151;-57
2022/07/17 01:09:34;;;;;;;10.88;1.92;;;;;;;12.99;65.50;101770.97;5055687;28;20554;-59
2022/07/17 01:12:01;;;;;;;7.80;1.73;;;;;;;12.93;65.71;101777.41;5052141;28;20049;-57
2022/07/17 01:14:28;;;;;;;8.18;1.83;;;;;;;12.88;66.24;101777.66;5055697;28;20052;-56
2022/07/17 01:16:56;;;;;;;10.02;1.98;;;;;;;12.86;65.94;101773.38;5047145;28;20057;-56
2022/07/17 01:19:23;;;;;;;6.57;1.85;;;;;;;12.84;65.93;101772.59;5049488;28;20082;-56
2022/07/17 01:21:50;;;;;;;5.95;1.60;;;;;;;12.82;65.99;101775.28;5049844;28;20064;-57
2022/07/17 01:24:19;;;;;;;10.15;1.90;;;;;;;12.80;66.25;101769.25;5053025;28;20375;-59
2022/07/17 01:26:47;;;;;;;6.65;1.75;;;;;;;12.79;66.68;101774.59;5067224;22;20064;-60
2022/07/17 01:29:16;;;;;;;5.13;1.50;;;;;;;12.75;66.33;101771.25;5047062;28;20205;-58
2022/07/17 01:31:44;;;;;;;4.82;1.55;;;;;;;12.74;66.58;101768.69;5046421;28;20063;-58
2022/07/17 01:34:12;;;;;;;5.60;1.60;;;;;;;12.71;66.28;101768.84;5055185;28;20590;-57
2022/07/17 01:36:40;;;;;;;9.95;1.77;;;;;;;12.68;66.80;101768.06;5047459;28;20412;-59
2022/07/17 01:39:07;;;;;;;6.15;1.48;;;;;;;12.65;67.04;101770.88;5056381;28;20152;-58
2022/07/17 01:41:34;;;;;;;4.60;1.70;;;;;;;12.63;67.09;101769.22;5052543;28;20519;-54
2022/07/17 01:44:03;;;;;;;11.63;1.88;;;;;;;12.59;67.74;101771.16;5055275;28;20190;-55
2022/07/17 01:46:30;;;;;;;7.03;1.85;;;;;;;12.55;67.66;101768.75;5036929;28;20079;-58
2022/07/17 01:49:00;;;;;;;13.80;1.95;;;;;;;12.52;67.90;101769.75;5049239;28;20057;-58
2022/07/17 01:51:28;;;;;;;13.13;2.20;;;;;;;12.49;67.94;101769.03;5054502;28;20048;-59
2022/07/17 01:53:58;;;;;;;10.07;1.88;;;;;;;12.45;67.90;101765.69;5045182;28;20497;-55
2022/07/17 01:56:25;;;;;;;10.38;2.03;;;;;;;12.45;68.90;101770.97;5050662;28;20358;-55
2022/07/17 01:58:52;;;;;;;4.93;1.70;;;;;;;12.42;68.73;101765.84;5052167;28;20053;-56
2022/07/17 02:01:19;;;;;;;5.35;1.80;;;;;;;12.42;68.31;101771.13;5053350;28;20052;-58
2022/07/17 02:03:47;;;;;;;6.10;1.73;;;;;;;12.39;68.31;101764.22;5047806;28;20479;-58
2022/07/17 02:06:14;;;;;;;6.53;1.80;;;;;;;12.37;68.21;101765.19;5055031;28;20072;-56
2022/07/17 02:08:42;;;;;;;7.70;1.88;;;;;;;12.33;68.16;101761.84;5055737;28;20045;-58
2022/07/17 02:11:09;;;;;;;8.32;1.67;;;;;;;12.31;68.35;101762.88;5053493;28;20041;-58
2022/07/17 02:13:36;;;;;;;5.25;1.83;;;;;;;12.28;68.56;101763.84;5046167;28;20139;-59
2022/07/17 02:16:03;;;;;;;6.10;1.63;;;;;;;12.27;68.27;101763.94;5046627;28;20049;-57
2022/07/17 02:18:31;;;;;;;8.85;1.90;;;;;;;12.22;68.97;101763.31;5055536;28;20152;-57
2022/07/17 02:20:59;;;;;;;9.23;1.70;;;;;;;12.21;68.74;101764.25;5061369;28;21035;-59
2022/07/17 02:23:26;;;;;;;6.75;1.85;;;;;;;12.19;68.85;101763.44;5054892;28;20155;-58
2022/07/17 02:25:53;;;;;;;7.07;1.30;;;;;;;12.16;68.85;101760.03;5056832;28;20057;-57
2022/07/17 02:28:21;;;;;;;12.10;1.60;;;;;;;12.12;69.75;101758.47;5056198;28;20408;-55
2022/07/17 02:30:48;;;;;;;8.07;1.73;;;;;;;12.09;69.80;101761.25;5048427;28;20060;-59
2022/07/17 02:33:15;;;;;;;4.28;1.00;;;;;;;12.08;69.56;101766.59;5054981;28;20041;-56
2022/07/17 02:35:42;;;;;;;7.20;1.70;;;;;;;12.05;70.22;101764.94;5051318;28;20128;-57
2022/07/17 02:38:09;;;;;;;8.13;1.80;;;;;;;12.04;70.09;101765.88;5050903;28;20071;-56
2022/07/17 02:40:36;;;;;;;5.50;1.52;;;;;;;12.01;70.78;101766.00;5048880;28;20231;-56
2022/07/17 02:43:03;;;;;;;6.38;1.60;;;;;;;12.01;70.76;101768.66;5033762;28;20053;-57
2022/07/17 02:45:31;;;;;;;5.00;1.17;;;;;;;11.98;70.95;101766.19;5046430;28;20537;-59
2022/07/17 02:47:58;;;;;;;7.47;1.80;;;;;;;11.95;71.28;101771.59;5049736;28;20061;-58
2022/07/17 02:50:25;;;;;;;9.43;1.73;;;;;;;11.94;71.03;101771.66;5047144;28;20045;-58
2022/07/17 02:52:53;;;;;;;8.90;2.10;;;;;;;11.90;71.82;101771.81;5030394;28;20054;-56
2022/07/17 02:55:20;;;;;;;7.38;1.92;;;;;;;11.87;71.45;101774.56;5029328;28;20049;-57
2022/07/17 02:57:48;;;;;;;7.07;1.83;;;;;;;11.87;72.13;101779.84;5030715;28;20053;-56
2022/07/17 03:00:16;;;;;;;7.93;1.55;;;;;;;11.83;72.17;101777.44;5028963;28;20068;-58
2022/07/17 03:02:44;;;;;;;11.23;1.80;;;;;;;11.82;72.38;101781.84;5030304;28;20049;-58
2022/07/17 03:05:13;;;;;;;6.55;1.70;;;;;;;11.80;72.89;101790.75;5028130;28;20426;-56
2022/07/17 03:07:40;;;;;;;6.47;1.83;;;;;;;11.80;72.62;101790.75;5030034;28;20434;-53
2022/07/17 03:10:08;;;;;;;14.45;1.85;;;;;;;11.81;72.32;101789.81;5029259;28;20058;-58
2022/07/17 03:12:35;;;;;;;8.40;1.90;;;;;;;11.80;72.53;101790.75;5030554;28;20538;-61
2022/07/17 03:15:04;;;;;;;6.90;1.70;;;;;;;11.81;72.41;101795.09;5042236;28;20064;-59
2022/07/17 03:17:31;;;;;;;6.15;1.40;;;;;;;11.80;72.56;101785.47;5039848;28;20060;-59
2022/07/17 03:19:58;;;;;;;9.57;1.30;;;;;;;11.79;72.75;101786.38;5047582;28;20134;-58
2022/07/17 03:22:25;;;;;;;9.02;2.03;;;;;;;11.76;73.03;101787.38;5050924;28;20060;-53
2022/07/17 03:24:52;;;;;;;10.30;1.90;;;;;;;11.78;72.55;101782.03;5048558;28;20067;-56
2022/07/17 03:27:20;;;;;;;10.38;2.40;;;;;;;11.77;72.86;101794.38;5031066;28;20489;-56
2022/07/17 03:29:47;;;;;;;4.63;1.40;;;;;;;11.81;72.43;101790.66;5028499;28;20064;-56
2022/07/17 03:32:15;;;;;;;6.50;1.92;;;;;;;11.78;73.15;101795.22;5048133;28;20056;-59
2022/07/17 03:34:42;;;;;;;8.45;2.00;;;;;;;11.74;73.19;101798.91;5051736;28;20417;-57
2022/07/17 03:37:09;;;;;;;5.57;1.50;;;;;;;11.72;73.27;101795.50;5052575;28;20050;-56
2022/07/17 03:39:37;;;;;;;10.10;1.70;;;;;;;11.71;73.23;101804.31;5056086;28;20056;-56
2022/07/17 03:42:04;;;;;;;5.03;1.77;;;;;;;11.70;73.58;101808.75;5043569;28;20073;-56
2022/07/17 03:44:31;;;;;;;15.48;2.78;;;;;;;11.72;73.71;101813.97;5057184;28;20040;-55
2022/07/17 03:46:59;;;;;;;12.48;1.98;;;;;;;11.71;73.92;101818.41;5053863;28;20049;-57
2022/07/17 03:49:26;;;;;;;5.55;1.45;;;;;;;11.72;74.17;101820.09;5053370;28;20053;-55
2022/07/17 03:51:53;;;;;;;9.90;2.10;;;;;;;11.73;73.81;101823.59;5043909;28;20245;-57
2022/07/17 03:54:20;;;;;;;6.53;1.80;;;;;;;11.76;73.92;101834.88;5052129;28;20485;-60
2022/07/17 03:56:47;;;;;;;7.25;1.77;;;;;;;11.76;74.22;101829.59;5049228;28;20706;-57
2022/07/17 03:59:14;;;;;;;7.97;1.77;;;;;;;11.75;74.49;101835.81;5055258;28;20048;-57
2022/07/17 04:01:41;;;;;;;14.48;2.13;;;;;;;11.78;74.80;101838.28;5043125;28;20068;-56
2022/07/17 04:04:09;;;;;;;4.63;1.40;;;;;;;11.79;74.87;101833.84;5057126;28;20053;-58
2022/07/17 04:06:36;;;;;;;9.18;2.15;;;;;;;11.76;75.12;101840.16;5052655;28;20063;-55
2022/07/17 04:09:04;;;;;;;9.93;1.48;;;;;;;11.80;75.03;101840.88;5056844;28;20048;-57
2022/07/17 04:11:31;;;;;;;7.03;1.70;;;;;;;11.83;75.26;101841.59;5049321;28;20068;-58
2022/07/17 04:13:58;;;;;;;6.60;1.80;;;;;;;11.88;74.75;101849.31;5056449;28;20120;-58
2022/07/17 04:16:25;;;;;;;8.82;2.03;;;;;;;11.89;75.16;101853.69;5050949;28;20064;-58
2022/07/17 04:18:53;;;;;;;11.27;2.30;;;;;;;11.94;75.20;101853.47;5051189;28;20056;-60
2022/07/17 04:21:21;;;;;;;8.15;1.83;;;;;;;11.98;75.18;101860.31;5052510;28;20068;-58
2022/07/17 04:23:48;;;;;;;8.35;1.63;;;;;;;11.96;74.91;101857.75;5050140;28;20056;-57
2022/07/17 04:26:15;;;;;;;6.72;1.65;;;;;;;12.03;74.74;101859.19;5053219;28;20048;-53
2022/07/17 04:28:42;;;;;;;9.82;2.38;;;;;;;12.08;75.02;101862.47;5049894;28;20080;-53
2022/07/17 04:31:10;;;;;;;7.93;1.70;;;;;;;12.11;74.79;101862.34;5055412;28;20146;-53
2022/07/17 04:33:37;;;;;;;4.50;1.63;;;;;;;12.13;74.85;101860.47;5055227;28;20059;-56
2022/07/17 04:36:04;;;;;;;8.40;1.70;;;;;;;12.20;74.51;101860.19;5039285;28;20056;-58
2022/07/17 04:38:31;;;;;;;7.15;1.98;;;;;;;12.24;74.67;101862.63;5057253;28;20647;-58
2022/07/17 04:40:58;;;;;;;4.32;1.73;;;;;;;12.32;74.85;101863.13;5044407;28;20049;-59
2022/07/17 04:43:25;;;;;;;6.95;1.40;;;;;;;12.37;74.46;101855.84;5055825;28;20055;-58
2022/07/17 04:45:52;;;;;;;11.88;2.47;;;;;;;12.36;74.55;101863.84;5047613;28;20056;-59
2022/07/17 04:48:20;;;;;;;7.20;2.15;;;;;;;12.42;74.52;101864.41;5053617;28;20128;-57
2022/07/17 04:50:47;;;;;;;8.27;1.50;;;;;;;12.50;74.24;101868.47;5030607;28;20054;-59
2022/07/17 04:53:14;;;;;;;4.80;1.40;;;;;;;12.49;74.47;101872.91;5028353;28;20045;-58
2022/07/17 04:55:49;;;;;;;6.10;1.90;;;;;;;12.38;74.55;101867.25;5027627;28;20058;-56
2022/07/17 04:58:16;;;;;;;9.30;2.05;;;;;;;12.42;74.61;101868.81;5028639;28;20061;-56
2022/07/17 05:00:43;;;;;;;7.80;1.77;;;;;;;12.54;74.44;101875.34;5027383;28;20056;-59
2022/07/17 05:03:10;;;;;;;15.40;1.90;;;;;;;12.58;74.00;101879.53;5028977;28;20061;-59
2022/07/17 05:05:40;;;;;;;7.53;1.90;;;;;;;12.60;73.90;101870.59;5026545;28;20042;-58
2022/07/17 05:08:07;;;;;;;13.98;2.40;;;;;;;12.68;73.69;101865.81;5028250;28;20042;-59
2022/07/17 05:10:34;;;;;;;14.93;2.47;;;;;;;12.75;73.06;101874.31;5027326;28;20053;-58
2022/07/17 05:13:01;;;;;;;9.35;2.10;;;;;;;12.85;73.43;101865.00;5028579;28;20505;-54
2022/07/17 05:15:28;;;;;;;10.50;1.92;;;;;;;12.78;73.05;101857.44;5046221;28;20049;-58
2022/07/17 05:17:55;;;;;;;7.65;1.95;;;;;;;12.90;72.85;101870.06;5041467;28;20524;-59
2022/07/17 05:20:22;;;;;;;7.10;1.85;;;;;;;13.01;72.21;101874.81;5027275;28;20074;-57
2022/07/17 05:22:49;;;;;;;5.50;1.52;;;;;;;13.13;71.76;101875.06;5029219;28;20044;-59
2022/07/17 05:25:17;;;;;;;9.38;2.13;;;;;;;13.08;71.45;101874.44;5027262;28;20079;-59
2022/07/17 05:27:44;;;;;;;9.38;1.85;;;;;;;13.20;71.21;101872.13;5028489;28;20625;-56
2022/07/17 05:30:11;;;;;;;11.85;2.13;;;;;;;13.23;70.97;101878.13;5027295;28;20098;-55
2022/07/17 05:32:38;;;;;;;9.02;1.80;;;;;;;13.34;70.74;101880.25;5027303;28;20056;-55
2022/07/17 05:35:06;;;;;;;11.98;2.10;;;;;;;13.47;70.25;101876.06;5035582;28;20699;-56
2022/07/17 05:37:33;;;;;;;8.23;1.95;;;;;;;13.57;69.20;101874.66;5044579;28;20083;-59
2022/07/17 05:40:00;;;;;;;6.90;1.60;;;;;;;13.72;69.43;101875.63;5046847;28;20079;-59
2022/07/17 05:42:28;;;;;;;10.23;2.03;;;;;;;13.82;68.17;101882.16;5048459;28;20063;-59
2022/07/17 05:45:02;;;;;;;6.18;2.15;;;;;;;13.86;67.39;101890.78;5049888;28;20060;-56
2022/07/17 05:47:29;;;;;;;6.82;1.27;;;;;;;14.05;66.48;101893.31;5051658;28;20272;-59
2022/07/17 05:49:57;;;;;;;4.28;1.30;;;;;;;14.08;65.76;101887.88;5050410;28;20436;-56
2022/07/17 05:52:24;;;;;;;7.68;1.77;;;;;;;14.26;65.40;101888.69;5048379;28;20053;-56
2022/07/17 05:54:51;;;;;;;10.07;2.15;;;;;;;14.32;65.13;101890.97;5030588;28;20477;-57
2022/07/17 05:57:18;;;;;;;9.60;1.73;;;;;;;14.33;65.24;101904.16;5031513;28;20065;-55
2022/07/17 05:59:45;;;;;;;4.88;1.45;;;;;;;14.30;64.76;101899.03;5031168;28;20132;-57
2022/07/17 06:02:12;;;;;;;5.88;1.52;;;;;;;14.48;63.94;101912.22;5031337;28;20065;-57
2022/07/17 06:04:39;;;;;;;8.25;1.90;;;;;;;14.47;63.61;101903.41;5031644;28;20049;-55
2022/07/17 06:07:07;;;;;;;7.55;1.75;;;;;;;14.64;63.61;101907.81;5040853;28;20057;-56
2022/07/17 06:09:34;;;;;;;12.10;1.70;;;;;;;14.76;62.88;101911.56;5049846;28;20049;-57
2022/07/17 06:12:01;;;;;;;8.48;1.42;;;;;;;14.90;62.46;101914.28;5032384;28;20064;-59
2022/07/17 06:14:28;;;;;;;6.07;1.70;;;;;;;14.98;61.07;101906.75;5043261;28;20056;-54
2022/07/17 06:16:55;;;;;;;7.05;1.83;;;;;;;14.85;60.78;101908.41;5049344;28;20060;-52
2022/07/17 06:19:22;;;;;;;4.80;1.30;;;;;;;14.84;60.92;101906.69;5055378;28;20057;-57
2022/07/17 06:21:49;;;;;;;9.48;1.95;;;;;;;14.84;61.26;101910.19;5040982;28;20141;-59
2022/07/17 06:24:16;;;;;;;7.53;1.70;;;;;;;15.19;60.12;101902.03;5043220;28;20053;-58
2022/07/17 06:26:43;;;;;;;6.35;1.30;;;;;;;15.22;58.70;101907.16;5039086;28;20056;-59
2022/07/17 06:29:10;;;;;;;6.03;1.75;;;;;;;15.14;59.17;101915.56;5031999;28;20084;-57
2022/07/17 06:31:38;;;;;;;6.93;1.70;;;;;;;15.28;58.61;101911.25;5030458;28;20121;-57
2022/07/17 06:34:05;;;;;;;14.15;2.13;;;;;;;15.37;57.64;101911.56;5031414;28;20098;-55
2022/07/17 06:36:32;;;;;;;5.47;1.60;;;;;;;15.34;58.14;101916.19;5030618;28;20057;-58
2022/07/17 06:38:59;;;;;;;10.07;1.55;;;;;;;15.45;56.94;101913.78;5031305;28;20061;-58
2022/07/17 06:41:26;;;;;;;4.20;1.45;;;;;;;15.65;56.27;101910.81;5039980;28;20064;-57
2022/07/17 06:43:54;;;;;;;10.75;1.58;;;;;;;15.45;56.37;101914.63;5054677;28;20055;-59
2022/07/17 06:46:21;;;;;;;6.13;1.52;;;;;;;15.55;56.27;101914.94;5049488;28;20049;-59
2022/07/17 06:48:51;;;;;;;13.50;1.65;;;;;;;15.73;56.32;101920.13;5034664;28;20057;-58
2022/07/17 06:51:18;;;;;;;8.10;1.90;;;;;;;15.84;55.44;101923.81;5030068;28;20057;-57
2022/07/17 06:53:46;;;;;;;8.52;1.73;;;;;;;15.89;55.21;101915.59;5031055;28;20060;-58
2022/07/17 06:56:13;;;;;;;8.10;2.13;;;;;;;15.84;55.51;101923.81;5028641;28;20071;-58
2022/07/17 06:58:40;;;;;;;11.90;2.17;;;;;;;15.93;55.52;101919.75;5030673;28;20061;-55
2022/07/17 07:01:07;;;;;;;12.85;1.83;;;;;;;15.70;55.81;101926.47;5029605;28;20438;-57
2022/07/17 07:03:34;;;;;;;4.93;1.80;;;;;;;15.86;55.85;101923.75;5030871;28;20064;-56
2022/07/17 07:06:01;;;;;;;5.65;1.45;;;;;;;15.74;55.83;101924.50;5028648;28;20046;-59
2022/07/17 07:08:29;;;;;;;9.77;1.65;;;;;;;15.84;56.19;101926.50;5030803;28;20108;-59
2022/07/17 07:10:56;;;;;;;12.73;2.05;;;;;;;16.10;55.40;101926.72;5029557;28;20076;-55
2022/07/17 07:13:23;;;;;;;6.05;1.63;;;;;;;16.10;55.64;101940.84;5032414;28;20095;-56
2022/07/17 07:15:50;;;;;;;5.95;1.33;;;;;;;15.91;55.67;101946.44;5046665;28;20049;-61
2022/07/17 07:18:18;;;;;;;8.30;1.20;;;;;;;15.90;55.52;101935.91;5050539;28;20053;-56
2022/07/17 07:20:45;;;;;;;7.13;1.80;;;;;;;15.91;55.76;101935.81;5048838;28;20064;-57
2022/07/17 07:23:12;;;;;;;9.85;1.85;;;;;;;15.80;55.54;101945.34;5046144;28;20064;-57
2022/07/17 07:25:39;;;;;;;9.30;1.70;;;;;;;15.99;55.29;101934.50;5029110;28;20141;-57
2022/07/17 07:28:10;;;;;;;9.57;1.38;;;;;;;15.72;56.27;101937.00;5065165;22;20124;-84
2022/07/17 07:30:47;;;;;;;8.23;1.42;;;;;;;15.83;56.00;101945.19;5023411;28;20053;-85
2022/07/17 07:33:18;;;;;;;6.18;1.50;;;;;;;16.10;55.69;101947.97;5028913;28;20041;-85
2022/07/17 07:35:46;;;;;;;9.75;1.90;;;;;;;16.12;55.59;101940.75;5056461;28;20033;-84
2022/07/17 07:38:13;;;;;;;6.80;1.83;;;;;;;16.30;54.76;101936.09;5049924;28;20045;-86
2022/07/17 07:40:43;;;;;;;3.83;1.40;;;;;;;16.45;54.79;101948.44;5037160;28;20037;-85
2022/07/17 07:43:12;;;;;;;11.18;1.73;;;;;;;16.23;54.87;101943.59;5041844;28;20041;-84
2022/07/17 07:45:48;;;;;;;7.07;1.60;;;;;;;15.94;55.65;101940.09;5035518;28;20037;-85
2022/07/17 07:48:21;;;;;;;7.70;1.48;;;;;;;16.16;55.75;101947.56;5041927;28;20231;-86
2022/07/17 07:50:51;;;;;;;6.00;1.52;;;;;;;16.31;55.08;101946.66;5018681;28;20374;-86
2022/07/17 07:53:29;;;;;;;7.05;1.67;;;;;;;15.93;55.59;101952.47;5022735;28;20048;-86
2022/07/17 07:55:58;;;;;;;4.80;1.38;;;;;;;16.01;55.96;101944.06;5033805;28;20124;-86
2022/07/17 07:58:29;;;;;;;8.27;1.75;;;;;;;16.17;55.96;101954.63;5056857;28;20463;-86
2022/07/17 08:01:07;;;;;;;10.23;1.65;;;;;;;16.00;55.85;101954.78;5033259;28;20045;-86
2022/07/17 08:03:38;;;;;;;8.13;1.52;;;;;;;16.01;56.42;101960.00;5017138;28;20049;-86
2022/07/17 08:06:09;;;;;;;9.15;1.77;;;;;;;16.06;56.06;101957.91;5044068;28;20075;-85
2022/07/17 08:08:48;;;;;;;5.18;1.35;;;;;;;16.24;56.15;101961.25;5021441;28;20504;-86
2022/07/17 08:11:33;;;;;;;11.48;1.58;;;;;;;16.28;55.55;101961.91;5036315;28;20037;-86
2022/07/17 08:14:01;;;;;;;7.90;1.67;;;;;;;16.13;55.73;101958.41;5051653;28;20080;-86
2022/07/17 08:16:44;;;;;;;10.45;1.50;;;;;;;16.00;56.47;101962.75;5035502;28;20045;-86
2022/07/17 08:19:49;;;;;;;6.28;1.25;;;;;;;16.18;56.00;101966.94;5039855;28;20037;-85
2022/07/17 08:22:35;;;;;;;7.55;1.77;;;;;;;16.35;55.82;101960.59;5020948;28;20041;-85
2022/07/17 08:25:32;;;;;;;9.40;1.60;;;;;;;16.23;56.03;101969.31;5018131;28;20046;-86
2022/07/17 08:28:10;;;;;;;7.88;1.42;;;;;;;16.40;55.44;101959.38;5035688;28;20049;-85
2022/07/17 08:30:46;;;;;;;4.13;1.30;;;;;;;16.24;55.99;101969.22;5004153;28;20144;-85
2022/07/17 08:33:19;;;;;;;14.57;2.55;;;;;;;16.07;57.03;101964.94;5020177;28;20037;-85
2022/07/17 08:35:53;;;;;;;10.25;1.77;;;;;;;16.60;55.91;101958.09;4999756;28;20116;-85
2022/07/17 08:38:26;;;;;;;8.82;1.75;;;;;;;16.80;55.09;101962.22;5014088;28;20052;-85
2022/07/17 08:40:57;;;;;;;6.32;1.50;;;;;;;17.21;54.13;101974.66;5046454;28;20083;-84
2022/07/17 08:43:29;;;;;;;7.95;1.65;;;;;;;17.33;53.42;101960.50;5055636;28;20090;-84
2022/07/17 08:45:57;;;;;;;5.63;1.40;;;;;;;17.20;52.84;101957.81;5028969;28;20056;-84
2022/07/17 08:48:31;;;;;;;4.30;1.48;;;;;;;17.51;52.03;101970.88;5023968;28;20064;-85
2022/07/17 08:51:27;;;;;;;5.97;1.45;;;;;;;17.86;51.02;101973.88;5020785;28;20044;-84
2022/07/17 08:54:36;;;;;;;6.75;1.50;;;;;;;18.14;49.86;101984.34;5040478;28;20187;-86
2022/07/17 08:57:20;;;;;;;9.13;2.08;;;;;;;18.19;49.58;101981.34;5031532;28;20053;-85
2022/07/17 09:00:03;;;;;;;7.57;1.70;;;;;;;18.02;49.51;101976.34;5013269;28;20064;-86
2022/07/17 09:02:32;;;;;;;10.68;1.40;;;;;;;17.99;49.70;101984.56;5032148;28;20062;-85
2022/07/17 09:05:03;;;;;;;7.57;1.65;;;;;;;17.92;49.96;101974.31;5013940;28;20068;-85
2022/07/17 09:07:34;;;;;;;6.28;1.42;;;;;;;17.92;50.06;101979.66;4999329;28;20595;-85
2022/07/17 09:10:18;;;;;;;6.78;1.55;;;;;;;17.76;49.92;101971.00;5017109;28;20494;-85
2022/07/17 09:12:50;;;;;;;5.53;1.63;;;;;;;17.99;49.91;101977.41;5015154;28;20053;-84
2022/07/17 09:15:36;;;;;;;6.07;1.58;;;;;;;17.67;50.17;101977.75;5043865;28;20069;-85
2022/07/17 09:18:18;;;;;;;5.97;1.60;;;;;;;17.85;49.82;101980.16;5011452;28;20089;-85
2022/07/17 09:21:01;;;;;;;5.70;1.58;;;;;;;18.14;49.24;101976.34;5036918;28;20059;-85
2022/07/17 09:23:31;;;;;;;6.88;1.58;;;;;;;18.62;48.36;101978.34;5015717;28;20041;-85
2022/07/17 09:26:07;;;;;;;10.50;2.25;;;;;;;18.58;48.78;101976.84;5030566;28;20045;-86
2022/07/17 09:28:46;;;;;;;4.25;1.35;;;;;;;18.91;48.30;101966.47;5015915;28;20049;-85
2022/07/17 09:31:29;;;;;;;6.97;1.75;;;;;;;19.37;47.12;101965.75;5015726;28;20049;-86
2022/07/17 09:34:03;;;;;;;8.35;1.80;;;;;;;19.45;47.07;101974.03;5020541;28;20232;-86
2022/07/17 09:36:31;;;;;;;4.57;1.50;;;;;;;19.14;47.33;101967.44;5016106;28;20133;-86
2022/07/17 09:38:58;;;;;;;6.00;1.92;;;;;;;18.67;47.74;101966.38;5055418;28;20028;-86
2022/07/17 09:41:34;;;;;;;8.57;1.92;;;;;;;18.34;48.21;101964.31;5067599;28;20052;-86
2022/07/17 09:44:01;;;;;;;;;;;;;;;18.68;48.09;101962.75;5053681;23;20036;-55
2022/07/17 09:46:33;;;;;;;7.47;1.52;;;;;;;18.80;47.37;101958.38;5067528;28;19920;-57
2022/07/17 09:49:04;;;;;;;7.28;1.88;;;;;;;18.86;47.19;101963.25;5071796;28;21602;-58
2022/07/17 09:51:33;;;;;;;6.95;1.92;;;;;;;18.60;47.96;101951.78;5075358;28;20516;-56
2022/07/17 09:54:02;;;;;;;5.43;1.67;;;;;;;18.97;47.52;101958.00;5072451;28;20048;-58
2022/07/17 09:56:32;;;;;;;6.13;1.42;;;;;;;19.25;46.93;101955.97;5068341;28;20049;-57
2022/07/17 09:59:05;;;;;;;5.15;1.23;;;;;;;19.39;46.65;101962.94;5057855;28;20057;-56
2022/07/17 10:01:33;;;;;;;6.78;1.52;;;;;;;19.22;46.96;101962.38;5048491;28;20060;-58
2022/07/17 10:04:02;;;;;;;8.85;1.65;;;;;;;19.09;47.04;101958.94;5050249;28;20056;-56
2022/07/17 10:06:30;;;;;;;5.60;1.58;;;;;;;19.08;47.10;101957.22;5046704;28;20051;-56
2022/07/17 10:08:59;;;;;;;5.28;1.75;;;;;;;19.10;47.17;101951.78;5068455;28;20053;-54
2022/07/17 10:11:40;;;;;;;6.15;1.48;;;;;;;19.59;46.31;101961.47;5067931;28;20456;-57
2022/07/17 10:14:15;;;;;;;6.28;1.30;;;;;;;19.49;46.17;101954.09;5076110;28;20055;-58
2022/07/17 10:16:42;;;;;;;7.70;1.90;;;;;;;19.39;46.29;101963.78;5047071;28;20049;-58
2022/07/17 10:19:21;;;;;;;8.52;1.60;;;;;;;19.58;46.17;101955.22;5059005;28;20049;-57
2022/07/17 10:21:56;;;;;;;8.57;1.92;;;;;;;19.62;45.90;101953.22;5067432;28;20052;-56
2022/07/17 10:24:24;;;;;;;9.25;1.90;;;;;;;19.49;46.01;101955.94;5058730;28;20528;-60
2022/07/17 10:26:51;;;;;;;5.10;1.85;;;;;;;19.70;45.30;101956.16;5050345;28;20083;-60
2022/07/17 10:30:00;;;;;;;9.73;1.88;;;;;;;19.95;44.77;101963.16;5051098;28;20045;-56
2022/07/17 10:32:28;;;;;;;5.10;1.63;;;;;;;19.64;45.45;101967.34;5042592;28;20044;-54
2022/07/17 10:35:09;;;;;;;6.78;1.73;;;;;;;19.36;45.52;101958.69;5063194;28;20080;-55
2022/07/17 10:37:36;;;;;;;7.28;1.92;;;;;;;19.39;45.82;101950.44;5062656;28;20067;-56
2022/07/17 10:40:15;;;;;;;7.78;1.80;;;;;;;19.52;45.90;101955.72;5060093;28;20448;-55
2022/07/17 10:43:02;;;;;;;7.07;1.63;;;;;;;19.70;45.38;101951.66;5054575;28;20136;-56
2022/07/17 10:45:35;;;;;;;9.95;2.10;;;;;;;19.62;45.54;101947.88;5061860;28;20061;-56
2022/07/17 10:48:16;;;;;;;9.18;2.05;;;;;;;19.51;45.97;101948.69;5066191;28;20049;-56
2022/07/17 10:50:54;;;;;;;9.85;2.05;;;;;;;19.96;45.55;101948.81;5059700;28;20053;-54
2022/07/17 10:53:23;;;;;;;6.80;2.85;;;;;;;20.24;45.76;101950.19;5061686;28;20156;-57
2022/07/17 10:56:04;;;;;;;6.10;1.75;;;;;;;20.36;43.98;101945.69;5056369;28;20040;-53
2022/07/17 10:58:33;;;;;;;4.90;1.80;;;;;;;20.28;43.85;101953.47;5057553;28;20049;-55
2022/07/17 11:01:14;;;;;;;7.75;2.55;;;;;;;20.45;43.55;101947.66;5060924;28;20537;-53
2022/07/17 11:03:42;;;;;;;7.68;1.80;;;;;;;20.51;42.98;101955.19;5061159;28;20067;-56
2022/07/17 11:06:19;;;;;;;6.20;1.60;;;;;;;20.82;43.28;101952.72;5063598;28;20056;-57
2022/07/17 11:08:53;;;;;;;9.80;1.67;;;;;;;21.24;42.79;101949.19;5062217;28;20083;-57
2022/07/17 11:11:40;;;;;;;8.35;1.90;;;;;;;21.33;41.66;101933.38;5058485;28;20145;-55
2022/07/17 11:14:11;;;;;;;8.45;1.70;;;;;;;21.37;41.21;101942.84;5067132;28;20056;-56
2022/07/17 11:16:44;;;;;;;10.80;1.80;;;;;;;21.21;40.87;101949.47;5059125;28;20064;-60
2022/07/17 11:19:12;;;;;;;7.40;2.17;;;;;;;20.66;41.76;101943.25;5056551;28;20045;-56
2022/07/17 11:21:50;;;;;;;7.03;2.10;;;;;;;20.91;41.56;101935.94;5037017;28;20055;-54
2022/07/17 11:24:17;;;;;;;5.15;1.25;;;;;;;21.36;41.43;101946.50;5060258;28;20465;-56
2022/07/17 11:26:45;;;;;;;5.65;1.77;;;;;;;21.53;40.81;101947.78;5057866;28;20045;-56
2022/07/17 11:29:12;;;;;;;3.65;1.35;;;;;;;21.56;40.97;101940.31;5057518;28;20063;-56
2022/07/17 11:31:39;;;;;;;7.95;1.77;;;;;;;21.53;40.66;101945.09;5061495;28;20420;-56
2022/07/17 11:34:09;;;;;;;6.75;2.10;;;;;;;21.61;40.44;101945.28;5067081;28;20060;-53
2022/07/17 11:36:38;;;;;;;6.43;1.60;;;;;;;21.58;39.97;101943.72;5061858;28;20064;-56